TimeCST,TemperatureF,Dew PointF,Humidity,Sea Level PressureIn,VisibilityMPH,Wind Direction,Wind SpeedMPH,Gust SpeedMPH,PrecipitationIn,Events,Conditions,WindDirDegrees,DateUTC
12:15 AM,40.5,31.5,70,30.03,10.0,WSW,3.5,-,N/A,,Clear,250,2012-11-18 06:15:00
12:35 AM,39.4,31.1,72,30.03,10.0,West,4.6,-,N/A,,Clear,260,2012-11-18 06:35:00
12:55 AM,39.6,31.3,72,30.03,10.0,WSW,4.6,-,N/A,,Clear,240,2012-11-18 06:55:00
1:15 AM,40.1,31.6,72,30.02,10.0,SSW,4.6,-,N/A,,Scattered Clouds,210,2012-11-18 07:15:00
1:35 AM,42.3,31.8,67,30.01,10.0,SW,5.8,-,N/A,,Scattered Clouds,220,2012-11-18 07:35:00
1:55 AM,41.4,31.8,69,30.01,10.0,SW,8.1,-,N/A,,Scattered Clouds,220,2012-11-18 07:55:00
2:15 AM,42.1,31.6,67,30.02,10.0,SSW,6.9,-,N/A,,Scattered Clouds,210,2012-11-18 08:15:00
2:35 AM,42.3,31.3,65,30.01,10.0,SW,5.8,-,N/A,,Clear,230,2012-11-18 08:35:00
2:55 AM,40.5,30.9,69,30.01,10.0,WSW,4.6,-,N/A,,Clear,240,2012-11-18 08:55:00
3:15 AM,38.1,30.4,74,30.01,10.0,WNW,3.5,-,N/A,,Clear,300,2012-11-18 09:15:00
3:35 AM,38.3,30.9,75,30.01,10.0,Calm,Calm,-,N/A,,Clear,0,2012-11-18 09:35:00
3:55 AM,37.4,29.8,74,30.00,10.0,Calm,Calm,-,N/A,,Clear,0,2012-11-18 09:55:00
4:15 AM,38.1,30.2,73,29.99,10.0,SW,5.8,-,N/A,,Clear,230,2012-11-18 10:15:00
4:35 AM,39.9,30.6,69,29.98,10.0,Calm,Calm,-,N/A,,Clear,0,2012-11-18 10:35:00
4:55 AM,38.3,30.2,73,29.98,10.0,Calm,Calm,-,N/A,,Clear,0,2012-11-18 10:55:00
5:15 AM,37.4,30.2,75,29.98,10.0,Calm,Calm,-,N/A,,Clear,0,2012-11-18 11:15:00
5:35 AM,37.9,30.2,74,29.98,10.0,Calm,Calm,-,N/A,,Clear,0,2012-11-18 11:35:00
5:55 AM,36.3,30.2,78,29.98,10.0,Calm,Calm,-,N/A,,Clear,0,2012-11-18 11:55:00
6:15 AM,36.0,30.0,79,29.97,10.0,Calm,Calm,-,N/A,,Clear,0,2012-11-18 12:15:00
6:35 AM,36.1,30.0,78,29.96,10.0,Calm,Calm,-,N/A,,Clear,0,2012-11-18 12:35:00
6:55 AM,35.8,29.5,78,29.96,10.0,Calm,Calm,-,N/A,,Clear,0,2012-11-18 12:55:00
7:15 AM,34.7,29.5,81,29.96,10.0,Calm,Calm,-,N/A,,Clear,0,2012-11-18 13:15:00
7:35 AM,33.8,28.6,81,29.96,10.0,SSE,3.5,-,N/A,,Clear,150,2012-11-18 13:35:00
7:55 AM,34.9,28.9,79,29.96,10.0,Calm,Calm,-,N/A,,Clear,0,2012-11-18 13:55:00
8:15 AM,36.7,29.8,76,29.97,10.0,SE,4.6,-,N/A,,Clear,140,2012-11-18 14:15:00
8:35 AM,39.2,30.4,71,29.97,10.0,SE,4.6,-,N/A,,Clear,140,2012-11-18 14:35:00
8:55 AM,41.7,30.9,66,29.97,10.0,SSE,4.6,-,N/A,,Clear,160,2012-11-18 14:55:00
9:15 AM,43.9,31.1,61,29.98,10.0,South,6.9,-,N/A,,Clear,170,2012-11-18 15:15:00
9:35 AM,46.0,32.0,58,29.97,10.0,Calm,Calm,-,N/A,,Clear,0,2012-11-18 15:35:00
9:55 AM,49.5,31.5,50,29.96,10.0,SSW,3.5,-,N/A,,Clear,200,2012-11-18 15:55:00
10:15 AM,51.4,31.6,47,29.96,10.0,SSE,5.8,-,N/A,,Clear,160,2012-11-18 16:15:00
10:35 AM,53.1,31.1,43,29.96,10.0,South,9.2,-,N/A,,Clear,180,2012-11-18 16:35:00
10:55 AM,54.5,31.3,41,29.96,10.0,South,10.4,-,N/A,,Clear,180,2012-11-18 16:55:00
11:15 AM,55.6,31.5,40,29.96,10.0,South,9.2,-,N/A,,Clear,190,2012-11-18 17:15:00
11:35 AM,57.6,31.6,37,29.95,10.0,South,8.1,-,N/A,,Clear,190,2012-11-18 17:35:00
11:55 AM,59.0,32.0,36,29.94,10.0,SW,8.1,-,N/A,,Clear,220,2012-11-18 17:55:00
12:15 PM,59.9,32.5,36,29.92,10.0,South,9.2,-,N/A,,Clear,180,2012-11-18 18:15:00
12:35 PM,61.0,33.3,35,29.91,10.0,SSW,9.2,-,N/A,,Clear,210,2012-11-18 18:35:00
12:55 PM,62.8,34.0,34,29.91,10.0,South,6.9,-,N/A,,Clear,180,2012-11-18 18:55:00
1:15 PM,63.9,34.2,33,29.90,10.0,South,10.4,-,N/A,,Clear,190,2012-11-18 19:15:00
1:35 PM,64.4,34.5,33,29.89,10.0,South,12.7,-,N/A,,Clear,180,2012-11-18 19:35:00
1:55 PM,64.4,34.7,33,29.89,10.0,South,13.8,18.4,N/A,,Clear,180,2012-11-18 19:55:00
2:15 PM,63.7,35.6,35,29.87,10.0,South,13.8,-,N/A,,Clear,170,2012-11-18 20:15:00
2:35 PM,62.6,36.1,37,29.88,10.0,South,12.7,-,N/A,,Clear,170,2012-11-18 20:35:00
2:55 PM,61.5,36.7,40,29.87,10.0,South,16.1,-,N/A,,Clear,170,2012-11-18 20:55:00
3:15 PM,60.6,36.7,41,29.87,10.0,South,13.8,-,N/A,,Clear,170,2012-11-18 21:15:00
3:35 PM,60.8,36.5,40,29.88,10.0,South,13.8,-,N/A,,Clear,170,2012-11-18 21:35:00
3:55 PM,60.3,36.1,41,29.89,10.0,South,13.8,-,N/A,,Clear,170,2012-11-18 21:55:00
4:15 PM,59.9,36.1,41,29.89,10.0,South,12.7,19.6,N/A,,Clear,170,2012-11-18 22:15:00
4:35 PM,58.8,36.5,43,29.89,10.0,South,16.1,-,N/A,,Clear,170,2012-11-18 22:35:00
4:55 PM,57.2,36.7,46,29.89,10.0,SSE,11.5,-,N/A,,Clear,160,2012-11-18 22:55:00
5:15 PM,54.9,36.9,51,29.90,10.0,SSE,11.5,-,N/A,,Clear,160,2012-11-18 23:15:00
5:35 PM,52.5,37.0,56,29.90,10.0,South,11.5,-,N/A,,Clear,170,2012-11-18 23:35:00
5:55 PM,50.2,36.9,60,29.91,10.0,South,11.5,-,N/A,,Clear,170,2012-11-18 23:55:00
6:15 PM,48.7,36.3,62,29.92,10.0,South,12.7,17.3,N/A,,Clear,170,2012-11-19 00:15:00
6:35 PM,47.3,35.6,64,29.92,10.0,South,12.7,-,N/A,,Clear,180,2012-11-19 00:35:00
6:55 PM,46.6,35.2,65,29.93,10.0,South,11.5,-,N/A,,Clear,180,2012-11-19 00:55:00
7:15 PM,46.0,34.7,65,29.93,10.0,South,10.4,-,N/A,,Clear,180,2012-11-19 01:15:00
7:35 PM,45.9,34.7,65,29.94,10.0,SSW,9.2,-,N/A,,Clear,200,2012-11-19 01:35:00
7:55 PM,45.0,34.2,66,29.95,10.0,South,3.5,-,N/A,,Clear,180,2012-11-19 01:55:00
8:15 PM,44.6,34.0,66,29.94,10.0,SSW,8.1,-,N/A,,Clear,210,2012-11-19 02:15:00
8:35 PM,44.6,34.2,67,29.94,10.0,SSW,9.2,-,N/A,,Clear,210,2012-11-19 02:35:00
8:55 PM,45.5,34.7,66,29.95,10.0,SW,10.4,-,N/A,,Clear,220,2012-11-19 02:55:00
9:15 PM,45.3,34.7,66,29.95,10.0,SW,10.4,-,N/A,,Clear,220,2012-11-19 03:15:00
9:35 PM,43.9,34.7,70,29.96,10.0,SW,8.1,-,N/A,,Clear,230,2012-11-19 03:35:00
9:55 PM,44.1,34.9,70,29.96,10.0,SW,9.2,-,N/A,,Clear,220,2012-11-19 03:55:00
10:35 PM,44.6,35.6,71,29.95,10.0,SW,9.2,-,N/A,,Clear,220,2012-11-19 04:35:00
11:15 PM,42.8,34.7,73,29.96,10.0,West,4.6,-,N/A,,Clear,270,2012-11-19 05:15:00
11:35 PM,41.5,34.3,76,29.96,10.0,Calm,Calm,-,N/A,,Clear,0,2012-11-19 05:35:00
11:55 PM,41.9,34.7,76,29.96,10.0,West,3.5,-,N/A,,Clear,260,2012-11-19 05:55:00